sensor_id;sensor_type;location;lat;lon;timestamp;pressure;altitude;pressure_sealevel;temperature;humidity
71621;BME280;59471;42.254;23.102;2023-04-04T00:01:23;94514.59;;;6.81;99.79
71621;BME280;59471;42.254;23.102;2023-04-04T00:03:49;94517.47;;;6.86;99.95
71621;BME280;59471;42.254;23.102;2023-04-04T00:06:19;94513.06;;;6.65;100.00
71621;BME280;59471;42.254;23.102;2023-04-04T00:08:45;94515.44;;;6.81;100.00
71621;BME280;59471;42.254;23.102;2023-04-04T00:11:11;94517.19;;;6.81;100.00
71621;BME280;59471;42.254;23.102;2023-04-04T00:13:38;94516.72;;;6.92;100.00
71621;BME280;59471;42.254;23.102;2023-04-04T00:16:04;94526.75;;;6.95;100.00
71621;BME280;59471;42.254;23.102;2023-04-04T00:18:31;94528.97;;;6.55;100.00
71621;BME280;59471;42.254;23.102;2023-04-04T00:20:57;94522.97;;;6.18;100.00
71621;BME280;59471;42.254;23.102;2023-04-04T00:23:23;94530.50;;;6.13;100.00
71621;BME280;59471;42.254;23.102;2023-04-04T00:25:52;94527.19;;;6.19;100.00
71621;BME280;59471;42.254;23.102;2023-04-04T00:28:18;94526.31;;;6.12;100.00
71621;BME280;59471;42.254;23.102;2023-04-04T00:30:45;94518.75;;;6.17;100.00
71621;BME280;59471;42.254;23.102;2023-04-04T00:33:11;94514.97;;;6.35;100.00
71621;BME280;59471;42.254;23.102;2023-04-04T00:35:37;94507.41;;;6.40;100.00
71621;BME280;59471;42.254;23.102;2023-04-04T00:38:03;94507.19;;;6.56;100.00
71621;BME280;59471;42.254;23.102;2023-04-04T00:40:28;94503.59;;;6.57;100.00
71621;BME280;59471;42.254;23.102;2023-04-04T00:42:54;94491.16;;;6.53;100.00
71621;BME280;59471;42.254;23.102;2023-04-04T00:45:20;94488.34;;;6.54;100.00
71621;BME280;59471;42.254;23.102;2023-04-04T00:47:45;94469.03;;;6.42;100.00
71621;BME280;59471;42.254;23.102;2023-04-04T00:50:12;94473.72;;;6.74;100.00
71621;BME280;59471;42.254;23.102;2023-04-04T00:52:37;94462.69;;;6.94;100.00
71621;BME280;59471;42.254;23.102;2023-04-04T00:55:03;94443.09;;;6.98;99.61
71621;BME280;59471;42.254;23.102;2023-04-04T00:57:29;94430.69;;;7.00;98.83
71621;BME280;59471;42.254;23.102;2023-04-04T00:59:58;94428.59;;;6.89;99.69
71621;BME280;59471;42.254;23.102;2023-04-04T01:02:23;94415.53;;;6.54;99.94
71621;BME280;59471;42.254;23.102;2023-04-04T01:04:50;94413.72;;;6.33;100.00
71621;BME280;59471;42.254;23.102;2023-04-04T01:07:17;94398.00;;;6.63;100.00
71621;BME280;59471;42.254;23.102;2023-04-04T01:09:43;94404.88;;;6.77;99.63
71621;BME280;59471;42.254;23.102;2023-04-04T01:12:09;94405.75;;;6.84;98.84
71621;BME280;59471;42.254;23.102;2023-04-04T01:14:35;94409.44;;;6.96;98.75
71621;BME280;59471;42.254;23.102;2023-04-04T01:17:01;94406.94;;;6.82;100.00
71621;BME280;59471;42.254;23.102;2023-04-04T01:20:02;94417.94;;;6.84;100.00
71621;BME280;59471;42.254;23.102;2023-04-04T01:22:30;94420.97;;;6.38;97.23
71621;BME280;59471;42.254;23.102;2023-04-04T01:24:59;94424.44;;;6.66;96.87
71621;BME280;59471;42.254;23.102;2023-04-04T01:27:25;94431.84;;;6.91;96.14
71621;BME280;59471;42.254;23.102;2023-04-04T01:29:52;94437.03;;;6.91;98.75
71621;BME280;59471;42.254;23.102;2023-04-04T01:32:19;94426.22;;;6.87;97.96
71621;BME280;59471;42.254;23.102;2023-04-04T01:37:35;94430.38;;;6.82;97.49
71621;BME280;59471;42.254;23.102;2023-04-04T01:42:59;94449.47;;;6.95;97.35
71621;BME280;59471;42.254;23.102;2023-04-04T01:45:25;94443.22;;;6.90;97.74
71621;BME280;59471;42.254;23.102;2023-04-04T01:47:53;94451.53;;;7.00;96.83
71621;BME280;59471;42.254;23.102;2023-04-04T01:50:20;94445.44;;;6.93;96.92
71621;BME280;59471;42.254;23.102;2023-04-04T01:52:46;94443.38;;;6.82;98.07
71621;BME280;59471;42.254;23.102;2023-04-04T01:55:12;94440.16;;;6.80;97.54
71621;BME280;59471;42.254;23.102;2023-04-04T01:57:38;94438.13;;;6.75;97.12
71621;BME280;59471;42.254;23.102;2023-04-04T02:00:04;94435.91;;;7.00;96.92
71621;BME280;59471;42.254;23.102;2023-04-04T02:02:33;94426.34;;;7.07;96.97
71621;BME280;59471;42.254;23.102;2023-04-04T02:04:58;94427.56;;;7.11;95.29
71621;BME280;59471;42.254;23.102;2023-04-04T02:07:24;94438.72;;;7.05;95.34
71621;BME280;59471;42.254;23.102;2023-04-04T02:09:49;94444.84;;;7.19;95.62
71621;BME280;59471;42.254;23.102;2023-04-04T02:12:15;94442.59;;;7.09;96.00
71621;BME280;59471;42.254;23.102;2023-04-04T02:14:41;94443.28;;;6.68;98.40
71621;BME280;59471;42.254;23.102;2023-04-04T02:17:07;94434.53;;;7.04;95.12
71621;BME280;59471;42.254;23.102;2023-04-04T02:19:32;94426.34;;;7.07;89.19
71621;BME280;59471;42.254;23.102;2023-04-04T02:21:58;94422.88;;;7.00;88.66
71621;BME280;59471;42.254;23.102;2023-04-04T02:24:23;94423.50;;;7.02;90.74
71621;BME280;59471;42.254;23.102;2023-04-04T02:26:49;94421.19;;;6.86;94.28
71621;BME280;59471;42.254;23.102;2023-04-04T02:29:14;94413.22;;;6.66;96.36
71621;BME280;59471;42.254;23.102;2023-04-04T02:31:41;94409.34;;;6.83;96.55
71621;BME280;59471;42.254;23.102;2023-04-04T02:34:06;94411.44;;;6.94;94.81
71621;BME280;59471;42.254;23.102;2023-04-04T02:36:32;94408.75;;;7.09;94.92
71621;BME280;59471;42.254;23.102;2023-04-04T02:38:57;94403.03;;;6.99;94.85
71621;BME280;59471;42.254;23.102;2023-04-04T02:41:23;94400.75;;;7.17;95.10
71621;BME280;59471;42.254;23.102;2023-04-04T02:43:49;94409.16;;;7.13;94.61
71621;BME280;59471;42.254;23.102;2023-04-04T02:46:15;94404.72;;;7.07;94.93
71621;BME280;59471;42.254;23.102;2023-04-04T02:48:41;94410.22;;;7.25;94.21
71621;BME280;59471;42.254;23.102;2023-04-04T02:51:06;94407.94;;;7.15;94.29
71621;BME280;59471;42.254;23.102;2023-04-04T02:53:32;94411.41;;;7.23;94.82
71621;BME280;59471;42.254;23.102;2023-04-04T02:55:57;94412.47;;;7.00;96.55
71621;BME280;59471;42.254;23.102;2023-04-04T02:58:23;94418.06;;;6.97;97.02
71621;BME280;59471;42.254;23.102;2023-04-04T03:00:54;94424.44;;;6.94;97.41
71621;BME280;59471;42.254;23.102;2023-04-04T03:03:20;94413.50;;;7.06;96.83
71621;BME280;59471;42.254;23.102;2023-04-04T03:05:46;94423.34;;;6.82;96.33
71621;BME280;59471;42.254;23.102;2023-04-04T03:08:14;94422.91;;;6.29;100.00
71621;BME280;59471;42.254;23.102;2023-04-04T03:10:40;94429.38;;;6.40;100.00
71621;BME280;59471;42.254;23.102;2023-04-04T03:13:06;94435.00;;;6.65;100.00
71621;BME280;59471;42.254;23.102;2023-04-04T03:15:32;94428.97;;;6.86;98.35
71621;BME280;59471;42.254;23.102;2023-04-04T03:17:59;94430.25;;;6.96;97.22
71621;BME280;59471;42.254;23.102;2023-04-04T03:20:24;94429.97;;;7.13;96.00
71621;BME280;59471;42.254;23.102;2023-04-04T03:22:51;94425.56;;;7.13;95.84
71621;BME280;59471;42.254;23.102;2023-04-04T03:25:16;94424.91;;;6.77;97.75
71621;BME280;59471;42.254;23.102;2023-04-04T03:27:42;94432.44;;;6.93;97.75
71621;BME280;59471;42.254;23.102;2023-04-04T03:30:08;94431.53;;;7.07;96.10
71621;BME280;59471;42.254;23.102;2023-04-04T03:32:37;94423.94;;;7.12;96.31
71621;BME280;59471;42.254;23.102;2023-04-04T03:35:04;94438.88;;;7.25;94.79
71621;BME280;59471;42.254;23.102;2023-04-04T03:37:31;94441.28;;;7.27;94.13
71621;BME280;59471;42.254;23.102;2023-04-04T03:39:57;94440.16;;;6.58;97.50
71621;BME280;59471;42.254;23.102;2023-04-04T03:42:22;94444.13;;;6.76;97.24
71621;BME280;59471;42.254;23.102;2023-04-04T03:44:48;94451.44;;;6.93;96.49
71621;BME280;59471;42.254;23.102;2023-04-04T03:47:13;94448.63;;;6.88;96.19
71621;BME280;59471;42.254;23.102;2023-04-04T03:49:39;94448.25;;;6.91;95.61
71621;BME280;59471;42.254;23.102;2023-04-04T03:52:05;94458.72;;;6.98;95.49
71621;BME280;59471;42.254;23.102;2023-04-04T03:54:31;94459.84;;;6.89;96.18
71621;BME280;59471;42.254;23.102;2023-04-04T03:56:57;94458.97;;;6.82;97.27
71621;BME280;59471;42.254;23.102;2023-04-04T03:59:23;94456.72;;;7.00;96.12
71621;BME280;59471;42.254;23.102;2023-04-04T04:01:49;94459.78;;;7.10;95.76
71621;BME280;59471;42.254;23.102;2023-04-04T04:04:15;94453.81;;;6.88;95.24
71621;BME280;59471;42.254;23.102;2023-04-04T04:06:40;94463.06;;;6.91;95.18
71621;BME280;59471;42.254;23.102;2023-04-04T04:09:06;94463.16;;;7.04;94.95
71621;BME280;59471;42.254;23.102;2023-04-04T04:11:32;94459.56;;;7.05;95.31
71621;BME280;59471;42.254;23.102;2023-04-04T04:13:58;94461.72;;;7.02;95.75
71621;BME280;59471;42.254;23.102;2023-04-04T04:16:25;94460.41;;;7.12;96.27
71621;BME280;59471;42.254;23.102;2023-04-04T04:18:52;94460.31;;;6.99;94.80
71621;BME280;59471;42.254;23.102;2023-04-04T04:21:17;94468.03;;;7.14;95.67
71621;BME280;59471;42.254;23.102;2023-04-04T04:23:43;94468.88;;;6.93;95.56
71621;BME280;59471;42.254;23.102;2023-04-04T04:26:08;94466.38;;;7.06;94.82
71621;BME280;59471;42.254;23.102;2023-04-04T04:28:34;94473.69;;;7.24;95.61
71621;BME280;59471;42.254;23.102;2023-04-04T04:31:06;94476.25;;;7.17;94.83
71621;BME280;59471;42.254;23.102;2023-04-04T04:33:32;94473.94;;;7.01;95.48
71621;BME280;59471;42.254;23.102;2023-04-04T04:36:04;94480.66;;;6.89;97.38
71621;BME280;59471;42.254;23.102;2023-04-04T04:38:31;94483.81;;;7.12;97.46
71621;BME280;59471;42.254;23.102;2023-04-04T04:40:57;94489.56;;;7.29;95.98
71621;BME280;59471;42.254;23.102;2023-04-04T04:43:23;94493.69;;;7.17;97.29
71621;BME280;59471;42.254;23.102;2023-04-04T04:45:49;94497.91;;;6.96;97.07
71621;BME280;59471;42.254;23.102;2023-04-04T04:48:15;94505.59;;;7.05;96.87
71621;BME280;59471;42.254;23.102;2023-04-04T04:50:45;94500.50;;;7.18;96.22
71621;BME280;59471;42.254;23.102;2023-04-04T04:53:14;94496.72;;;7.20;96.86
71621;BME280;59471;42.254;23.102;2023-04-04T04:55:40;94497.47;;;7.14;96.82
71621;BME280;59471;42.254;23.102;2023-04-04T04:58:07;94504.59;;;7.06;97.33
71621;BME280;59471;42.254;23.102;2023-04-04T05:00:33;94510.13;;;6.74;99.46
71621;BME280;59471;42.254;23.102;2023-04-04T05:02:58;94519.56;;;6.97;99.55
71621;BME280;59471;42.254;23.102;2023-04-04T05:05:25;94516.09;;;6.90;99.05
71621;BME280;59471;42.254;23.102;2023-04-04T05:07:51;94519.69;;;7.10;98.28
71621;BME280;59471;42.254;23.102;2023-04-04T05:10:17;94513.34;;;7.19;98.58
71621;BME280;59471;42.254;23.102;2023-04-04T05:12:45;94518.06;;;7.09;98.33
71621;BME280;59471;42.254;23.102;2023-04-04T05:15:11;94521.41;;;7.31;97.94
71621;BME280;59471;42.254;23.102;2023-04-04T05:17:37;94515.03;;;7.34;95.94
71621;BME280;59471;42.254;23.102;2023-04-04T05:20:04;94520.44;;;7.32;97.01
71621;BME280;59471;42.254;23.102;2023-04-04T05:22:30;94507.75;;;7.23;96.85
71621;BME280;59471;42.254;23.102;2023-04-04T05:24:56;94513.84;;;7.36;96.46
71621;BME280;59471;42.254;23.102;2023-04-04T05:27:21;94510.69;;;7.41;96.78
71621;BME280;59471;42.254;23.102;2023-04-04T05:29:47;94511.06;;;7.38;96.50
71621;BME280;59471;42.254;23.102;2023-04-04T05:32:13;94514.97;;;7.55;95.32
71621;BME280;59471;42.254;23.102;2023-04-04T05:34:40;94518.53;;;7.76;95.20
71621;BME280;59471;42.254;23.102;2023-04-04T05:37:05;94522.13;;;7.81;95.07
71621;BME280;59471;42.254;23.102;2023-04-04T05:39:31;94527.00;;;7.91;95.04
71621;BME280;59471;42.254;23.102;2023-04-04T05:41:56;94522.38;;;7.52;95.69
71621;BME280;59471;42.254;23.102;2023-04-04T05:44:22;94524.94;;;7.45;95.71
71621;BME280;59471;42.254;23.102;2023-04-04T05:46:47;94524.63;;;7.61;94.02
71621;BME280;59471;42.254;23.102;2023-04-04T05:49:13;94518.00;;;7.59;93.16
71621;BME280;59471;42.254;23.102;2023-04-04T05:51:39;94526.47;;;7.68;95.92
71621;BME280;59471;42.254;23.102;2023-04-04T05:54:04;94526.69;;;7.66;95.58
71621;BME280;59471;42.254;23.102;2023-04-04T05:56:32;94531.31;;;7.71;95.28
71621;BME280;59471;42.254;23.102;2023-04-04T05:58:58;94536.97;;;7.81;94.29
71621;BME280;59471;42.254;23.102;2023-04-04T06:01:24;94534.59;;;7.86;92.98
71621;BME280;59471;42.254;23.102;2023-04-04T06:03:50;94534.69;;;8.06;92.13
71621;BME280;59471;42.254;23.102;2023-04-04T06:06:16;94540.81;;;8.20;91.48
71621;BME280;59471;42.254;23.102;2023-04-04T06:08:42;94543.56;;;8.11;89.93
71621;BME280;59471;42.254;23.102;2023-04-04T06:11:08;94542.41;;;8.21;90.03
71621;BME280;59471;42.254;23.102;2023-04-04T06:13:33;94540.94;;;8.53;92.44
71621;BME280;59471;42.254;23.102;2023-04-04T06:15:59;94549.59;;;8.19;92.33
71621;BME280;59471;42.254;23.102;2023-04-04T06:18:25;94545.97;;;8.13;94.37
71621;BME280;59471;42.254;23.102;2023-04-04T06:20:50;94553.13;;;7.98;92.32
71621;BME280;59471;42.254;23.102;2023-04-04T06:23:16;94557.22;;;7.79;92.54
71621;BME280;59471;42.254;23.102;2023-04-04T06:25:42;94555.81;;;7.76;90.92
71621;BME280;59471;42.254;23.102;2023-04-04T06:28:07;94556.88;;;7.88;88.98
71621;BME280;59471;42.254;23.102;2023-04-04T06:30:36;94560.13;;;7.97;89.35
71621;BME280;59471;42.254;23.102;2023-04-04T06:33:05;94566.22;;;7.76;89.40
71621;BME280;59471;42.254;23.102;2023-04-04T06:35:30;94570.75;;;7.96;90.28
71621;BME280;59471;42.254;23.102;2023-04-04T06:37:57;94571.16;;;7.99;89.51
71621;BME280;59471;42.254;23.102;2023-04-04T06:40:23;94574.13;;;7.61;92.11
71621;BME280;59471;42.254;23.102;2023-04-04T06:42:50;94572.88;;;7.79;92.31
71621;BME280;59471;42.254;23.102;2023-04-04T06:45:22;94577.44;;;8.05;91.78
71621;BME280;59471;42.254;23.102;2023-04-04T06:47:52;94582.97;;;8.30;90.78
71621;BME280;59471;42.254;23.102;2023-04-04T06:50:21;94580.75;;;7.92;90.41
71621;BME280;59471;42.254;23.102;2023-04-04T06:52:48;94579.13;;;7.91;91.34
71621;BME280;59471;42.254;23.102;2023-04-04T06:55:14;94588.03;;;8.03;91.44
71621;BME280;59471;42.254;23.102;2023-04-04T06:57:40;94585.66;;;8.43;92.26
71621;BME280;59471;42.254;23.102;2023-04-04T07:00:08;94590.91;;;8.15;90.67
71621;BME280;59471;42.254;23.102;2023-04-04T07:02:35;94593.25;;;8.38;89.18
71621;BME280;59471;42.254;23.102;2023-04-04T07:05:01;94587.50;;;8.49;88.98
71621;BME280;59471;42.254;23.102;2023-04-04T07:07:30;94597.19;;;8.69;86.97
71621;BME280;59471;42.254;23.102;2023-04-04T07:09:55;94593.63;;;8.76;88.04
71621;BME280;59471;42.254;23.102;2023-04-04T07:12:21;94602.63;;;8.74;88.54
71621;BME280;59471;42.254;23.102;2023-04-04T07:14:46;94606.06;;;8.81;86.07
71621;BME280;59471;42.254;23.102;2023-04-04T07:17:12;94596.25;;;8.83;87.15
71621;BME280;59471;42.254;23.102;2023-04-04T07:19:37;94609.19;;;9.38;86.69
71621;BME280;59471;42.254;23.102;2023-04-04T07:22:03;94607.81;;;9.62;88.35
71621;BME280;59471;42.254;23.102;2023-04-04T07:24:29;94604.16;;;9.76;84.92
71621;BME280;59471;42.254;23.102;2023-04-04T07:26:54;94606.97;;;9.28;85.87
71621;BME280;59471;42.254;23.102;2023-04-04T07:29:20;94603.34;;;9.29;85.19
71621;BME280;59471;42.254;23.102;2023-04-04T07:31:46;94605.78;;;9.50;85.00
71621;BME280;59471;42.254;23.102;2023-04-04T07:34:12;94609.78;;;9.60;84.19
71621;BME280;59471;42.254;23.102;2023-04-04T07:36:38;94616.56;;;10.27;85.76
71621;BME280;59471;42.254;23.102;2023-04-04T07:39:03;94624.03;;;10.88;82.76
71621;BME280;59471;42.254;23.102;2023-04-04T07:41:29;94614.38;;;10.82;80.34
71621;BME280;59471;42.254;23.102;2023-04-04T07:43:55;94611.44;;;10.59;79.79
71621;BME280;59471;42.254;23.102;2023-04-04T07:46:21;94615.16;;;10.89;79.34
71621;BME280;59471;42.254;23.102;2023-04-04T07:48:47;94611.97;;;10.81;81.38
71621;BME280;59471;42.254;23.102;2023-04-04T07:51:12;94614.44;;;10.69;80.80
71621;BME280;59471;42.254;23.102;2023-04-04T07:53:38;94612.06;;;10.54;79.59
71621;BME280;59471;42.254;23.102;2023-04-04T07:56:04;94613.16;;;10.20;80.38
71621;BME280;59471;42.254;23.102;2023-04-04T07:58:33;94619.47;;;10.71;80.76
71621;BME280;59471;42.254;23.102;2023-04-04T08:01:00;94618.66;;;10.70;79.48
71621;BME280;59471;42.254;23.102;2023-04-04T08:03:26;94618.13;;;10.55;80.45
71621;BME280;59471;42.254;23.102;2023-04-04T08:05:51;94613.34;;;10.38;81.39
71621;BME280;59471;42.254;23.102;2023-04-04T08:08:17;94614.38;;;10.11;83.44
71621;BME280;59471;42.254;23.102;2023-04-04T08:10:44;94619.41;;;10.19;81.79
71621;BME280;59471;42.254;23.102;2023-04-04T08:13:10;94614.63;;;9.76;83.26
71621;BME280;59471;42.254;23.102;2023-04-04T08:15:37;94620.25;;;10.00;83.82
71621;BME280;59471;42.254;23.102;2023-04-04T08:18:03;94619.03;;;10.09;83.88
71621;BME280;59471;42.254;23.102;2023-04-04T08:20:28;94623.41;;;10.15;78.52
71621;BME280;59471;42.254;23.102;2023-04-04T08:22:54;94621.78;;;10.40;77.44
71621;BME280;59471;42.254;23.102;2023-04-04T08:25:19;94624.03;;;10.17;77.22
71621;BME280;59471;42.254;23.102;2023-04-04T08:27:45;94620.16;;;10.39;76.81
71621;BME280;59471;42.254;23.102;2023-04-04T08:30:11;94620.94;;;10.53;78.22
71621;BME280;59471;42.254;23.102;2023-04-04T08:32:38;94635.41;;;10.56;76.22
71621;BME280;59471;42.254;23.102;2023-04-04T08:35:05;94629.03;;;10.38;74.61
71621;BME280;59471;42.254;23.102;2023-04-04T08:37:31;94640.25;;;10.59;73.57
71621;BME280;59471;42.254;23.102;2023-04-04T08:39:57;94635.63;;;10.61;73.41
71621;BME280;59471;42.254;23.102;2023-04-04T08:42:23;94633.88;;;10.41;75.08
71621;BME280;59471;42.254;23.102;2023-04-04T08:44:52;94635.69;;;10.21;74.47
71621;BME280;59471;42.254;23.102;2023-04-04T08:47:20;94644.56;;;9.80;74.84
71621;BME280;59471;42.254;23.102;2023-04-04T08:49:48;94642.38;;;9.64;76.18
71621;BME280;59471;42.254;23.102;2023-04-04T08:52:16;94651.22;;;9.63;76.70
71621;BME280;59471;42.254;23.102;2023-04-04T08:54:46;94654.78;;;9.22;77.55
71621;BME280;59471;42.254;23.102;2023-04-04T08:57:12;94657.63;;;9.34;77.59
71621;BME280;59471;42.254;23.102;2023-04-04T08:59:38;94663.66;;;9.34;78.18
71621;BME280;59471;42.254;23.102;2023-04-04T09:04:38;94664.41;;;9.15;77.33
71621;BME280;59471;42.254;23.102;2023-04-04T09:07:05;94658.41;;;9.21;76.33
71621;BME280;59471;42.254;23.102;2023-04-04T09:09:32;94658.44;;;9.54;77.27
71621;BME280;59471;42.254;23.102;2023-04-04T09:12:02;94662.47;;;9.70;75.40
71621;BME280;59471;42.254;23.102;2023-04-04T09:14:32;94663.19;;;9.17;75.83
71621;BME280;59471;42.254;23.102;2023-04-04T09:16:57;94668.47;;;9.24;75.87
71621;BME280;59471;42.254;23.102;2023-04-04T09:19:23;94664.44;;;9.28;75.35
71621;BME280;59471;42.254;23.102;2023-04-04T09:21:49;94663.13;;;8.91;75.22
71621;BME280;59471;42.254;23.102;2023-04-04T09:24:15;94658.72;;;8.91;74.68
71621;BME280;59471;42.254;23.102;2023-04-04T09:29:16;94660.72;;;8.89;74.33
71621;BME280;59471;42.254;23.102;2023-04-04T09:31:43;94659.72;;;8.97;74.06
71621;BME280;59471;42.254;23.102;2023-04-04T09:34:12;94669.25;;;8.70;73.53
71621;BME280;59471;42.254;23.102;2023-04-04T09:36:39;94680.00;;;8.47;73.10
71621;BME280;59471;42.254;23.102;2023-04-04T09:39:06;94676.09;;;8.36;75.40
71621;BME280;59471;42.254;23.102;2023-04-04T09:41:32;94680.25;;;8.58;74.23
71621;BME280;59471;42.254;23.102;2023-04-04T09:43:59;94679.56;;;8.43;73.46
71621;BME280;59471;42.254;23.102;2023-04-04T09:46:25;94683.31;;;8.34;73.92
71621;BME280;59471;42.254;23.102;2023-04-04T09:48:52;94674.59;;;8.48;73.77
71621;BME280;59471;42.254;23.102;2023-04-04T09:51:19;94685.44;;;8.52;72.37
71621;BME280;59471;42.254;23.102;2023-04-04T09:53:49;94698.03;;;8.13;72.50
71621;BME280;59471;42.254;23.102;2023-04-04T09:56:16;94710.91;;;8.22;72.40
71621;BME280;59471;42.254;23.102;2023-04-04T09:58:46;94708.94;;;8.24;72.71
71621;BME280;59471;42.254;23.102;2023-04-04T10:01:12;94699.94;;;7.98;72.10
71621;BME280;59471;42.254;23.102;2023-04-04T10:03:38;94717.38;;;7.76;72.19
71621;BME280;59471;42.254;23.102;2023-04-04T10:06:04;94733.84;;;7.77;72.24
71621;BME280;59471;42.254;23.102;2023-04-04T10:08:31;94725.75;;;7.72;72.57
71621;BME280;59471;42.254;23.102;2023-04-04T10:11:02;94744.38;;;7.47;72.82
71621;BME280;59471;42.254;23.102;2023-04-04T10:13:33;94730.72;;;7.45;72.61
71621;BME280;59471;42.254;23.102;2023-04-04T10:16:08;94736.78;;;7.52;72.64
71621;BME280;59471;42.254;23.102;2023-04-04T10:18:35;94744.97;;;7.49;72.12
71621;BME280;59471;42.254;23.102;2023-04-04T10:21:02;94751.38;;;7.68;71.74
71621;BME280;59471;42.254;23.102;2023-04-04T10:23:29;94760.00;;;7.47;71.11
71621;BME280;59471;42.254;23.102;2023-04-04T10:25:56;94770.66;;;7.52;70.08
71621;BME280;59471;42.254;23.102;2023-04-04T10:28:24;94762.03;;;7.15;71.97
71621;BME280;59471;42.254;23.102;2023-04-04T10:30:59;94772.25;;;7.32;72.17
71621;BME280;59471;42.254;23.102;2023-04-04T10:36:39;94779.34;;;7.38;71.22
71621;BME280;59471;42.254;23.102;2023-04-04T10:39:12;94785.31;;;7.17;71.25
71621;BME280;59471;42.254;23.102;2023-04-04T10:41:39;94794.03;;;7.09;71.34
71621;BME280;59471;42.254;23.102;2023-04-04T10:44:11;94787.31;;;6.85;72.36
71621;BME280;59471;42.254;23.102;2023-04-04T10:46:56;94792.47;;;7.15;71.63
71621;BME280;59471;42.254;23.102;2023-04-04T10:49:26;94801.47;;;6.83;71.13
71621;BME280;59471;42.254;23.102;2023-04-04T10:51:54;94805.53;;;7.00;71.28
71621;BME280;59471;42.254;23.102;2023-04-04T10:54:20;94801.03;;;6.94;71.62
71621;BME280;59471;42.254;23.102;2023-04-04T10:56:47;94806.69;;;6.83;70.70
71621;BME280;59471;42.254;23.102;2023-04-04T10:59:15;94808.31;;;6.69;70.59
71621;BME280;59471;42.254;23.102;2023-04-04T11:02:00;94809.00;;;7.07;72.84
71621;BME280;59471;42.254;23.102;2023-04-04T11:04:34;94815.81;;;6.93;70.05
71621;BME280;59471;42.254;23.102;2023-04-04T11:09:50;94823.91;;;6.99;70.71
71621;BME280;59471;42.254;23.102;2023-04-04T11:12:29;94815.03;;;6.93;70.82
71621;BME280;59471;42.254;23.102;2023-04-04T11:15:06;94820.41;;;6.77;69.89
71621;BME280;59471;42.254;23.102;2023-04-04T11:17:49;94826.50;;;6.84;70.44
71621;BME280;59471;42.254;23.102;2023-04-04T11:20:33;94822.28;;;7.12;72.12
71621;BME280;59471;42.254;23.102;2023-04-04T11:23:06;94825.88;;;7.26;70.52
71621;BME280;59471;42.254;23.102;2023-04-04T11:25:37;94828.03;;;7.08;69.80
71621;BME280;59471;42.254;23.102;2023-04-04T11:28:13;94831.66;;;7.07;70.16
71621;BME280;59471;42.254;23.102;2023-04-04T11:30:42;94833.59;;;7.05;70.17
71621;BME280;59471;42.254;23.102;2023-04-04T11:33:12;94837.09;;;7.12;71.23
71621;BME280;59471;42.254;23.102;2023-04-04T11:35:40;94846.63;;;6.90;69.83
71621;BME280;59471;42.254;23.102;2023-04-04T11:38:14;94844.13;;;6.82;70.13
71621;BME280;59471;42.254;23.102;2023-04-04T11:40:42;94844.56;;;6.85;69.61
71621;BME280;59471;42.254;23.102;2023-04-04T11:43:18;94848.41;;;6.89;71.20
71621;BME280;59471;42.254;23.102;2023-04-04T11:45:45;94845.34;;;7.15;69.69
71621;BME280;59471;42.254;23.102;2023-04-04T11:48:13;94853.28;;;7.07;69.03
71621;BME280;59471;42.254;23.102;2023-04-04T11:50:41;94844.81;;;6.76;69.89
71621;BME280;59471;42.254;23.102;2023-04-04T11:53:08;94845.66;;;6.91;68.66
71621;BME280;59471;42.254;23.102;2023-04-04T11:55:39;94861.50;;;6.96;68.67
71621;BME280;59471;42.254;23.102;2023-04-04T11:58:10;94858.22;;;6.87;69.45
71621;BME280;59471;42.254;23.102;2023-04-04T12:00:37;94865.53;;;6.69;69.36
71621;BME280;59471;42.254;23.102;2023-04-04T12:03:05;94863.66;;;6.78;69.98
71621;BME280;59471;42.254;23.102;2023-04-04T12:05:33;94860.44;;;6.76;69.87
71621;BME280;59471;42.254;23.102;2023-04-04T12:07:59;94863.22;;;6.89;68.92
71621;BME280;59471;42.254;23.102;2023-04-04T12:10:28;94863.88;;;6.91;69.19
71621;BME280;59471;42.254;23.102;2023-04-04T12:12:57;94868.34;;;6.97;69.52
71621;BME280;59471;42.254;23.102;2023-04-04T12:15:23;94854.75;;;6.57;71.44
71621;BME280;59471;42.254;23.102;2023-04-04T12:17:51;94862.03;;;6.77;73.36
71621;BME280;59471;42.254;23.102;2023-04-04T12:20:21;94865.44;;;6.62;72.58
71621;BME280;59471;42.254;23.102;2023-04-04T12:22:48;94857.00;;;6.60;73.07
71621;BME280;59471;42.254;23.102;2023-04-04T12:25:15;94854.75;;;6.57;74.68
71621;BME280;59471;42.254;23.102;2023-04-04T12:27:42;94863.75;;;6.69;73.87
71621;BME280;59471;42.254;23.102;2023-04-04T12:30:09;94861.16;;;6.69;74.19
71621;BME280;59471;42.254;23.102;2023-04-04T12:32:43;94869.38;;;6.58;74.71
71621;BME280;59471;42.254;23.102;2023-04-04T12:35:10;94868.66;;;6.49;73.96
71621;BME280;59471;42.254;23.102;2023-04-04T12:37:38;94870.47;;;6.64;74.87
71621;BME280;59471;42.254;23.102;2023-04-04T12:40:05;94880.94;;;6.56;75.05
71621;BME280;59471;42.254;23.102;2023-04-04T12:42:33;94873.16;;;6.33;77.15
71621;BME280;59471;42.254;23.102;2023-04-04T12:45:00;94871.59;;;6.23;77.62
71621;BME280;59471;42.254;23.102;2023-04-04T12:47:29;94870.78;;;6.23;77.33
71621;BME280;59471;42.254;23.102;2023-04-04T12:49:55;94876.22;;;6.13;78.28
71621;BME280;59471;42.254;23.102;2023-04-04T12:52:29;94870.69;;;6.16;77.71
71621;BME280;59471;42.254;23.102;2023-04-04T12:55:06;94870.81;;;6.00;79.73
71621;BME280;59471;42.254;23.102;2023-04-04T12:57:34;94874.50;;;6.06;78.62
71621;BME280;59471;42.254;23.102;2023-04-04T13:00:02;94868.09;;;5.93;78.87
71621;BME280;59471;42.254;23.102;2023-04-04T13:02:30;94874.44;;;5.82;80.78
71621;BME280;59471;42.254;23.102;2023-04-04T13:05:00;94870.56;;;5.78;80.54
71621;BME280;59471;42.254;23.102;2023-04-04T13:07:31;94874.63;;;5.81;81.35
71621;BME280;59471;42.254;23.102;2023-04-04T13:10:03;94878.72;;;5.75;81.23
71621;BME280;59471;42.254;23.102;2023-04-04T13:15:23;94878.88;;;5.43;81.28
71621;BME280;59471;42.254;23.102;2023-04-04T13:18:23;94886.75;;;5.57;81.50